sensor_id;sensor_type;location;lat;lon;timestamp;pressure;altitude;pressure_sealevel;temperature;humidity
56182;BME280;51963;46.052;14.544;2023-04-07T00:02:03;98221.84;;;0.78;100.00
56182;BME280;51963;46.052;14.544;2023-04-07T00:04:28;98229.16;;;1.15;100.00
56182;BME280;51963;46.052;14.544;2023-04-07T00:06:54;98222.06;;;0.96;100.00
56182;BME280;51963;46.052;14.544;2023-04-07T00:09:20;98236.31;;;0.92;100.00
56182;BME280;51963;46.052;14.544;2023-04-07T00:11:48;98234.34;;;0.84;100.00
56182;BME280;51963;46.052;14.544;2023-04-07T00:14:14;98220.41;;;0.64;100.00
56182;BME280;51963;46.052;14.544;2023-04-07T00:16:39;98222.59;;;0.90;100.00
56182;BME280;51963;46.052;14.544;2023-04-07T00:19:05;98225.84;;;0.82;100.00
56182;BME280;51963;46.052;14.544;2023-04-07T00:21:33;98217.03;;;0.73;100.00
56182;BME280;51963;46.052;14.544;2023-04-07T00:23:59;98217.25;;;0.60;100.00
56182;BME280;51963;46.052;14.544;2023-04-07T00:26:24;98222.19;;;0.63;99.82
56182;BME280;51963;46.052;14.544;2023-04-07T00:28:56;98218.97;;;0.50;98.59
56182;BME280;51963;46.052;14.544;2023-04-07T00:31:27;98236.72;;;0.45;99.44
56182;BME280;51963;46.052;14.544;2023-04-07T00:33:53;98229.69;;;0.35;100.00
56182;BME280;51963;46.052;14.544;2023-04-07T00:36:20;98230.47;;;0.36;100.00
56182;BME280;51963;46.052;14.544;2023-04-07T00:38:46;98220.53;;;0.20;100.00
56182;BME280;51963;46.052;14.544;2023-04-07T00:41:11;98220.31;;;0.11;100.00
56182;BME280;51963;46.052;14.544;2023-04-07T00:43:37;98241.34;;;0.20;100.00
56182;BME280;51963;46.052;14.544;2023-04-07T00:46:04;98236.63;;;0.13;100.00
56182;BME280;51963;46.052;14.544;2023-04-07T00:48:30;98225.31;;;0.03;100.00
56182;BME280;51963;46.052;14.544;2023-04-07T00:50:56;98234.63;;;0.06;100.00
56182;BME280;51963;46.052;14.544;2023-04-07T00:53:24;98231.34;;;0.04;100.00
56182;BME280;51963;46.052;14.544;2023-04-07T00:55:50;98233.81;;;0.05;100.00
56182;BME280;51963;46.052;14.544;2023-04-07T00:58:16;98235.38;;;-0.04;100.00
56182;BME280;51963;46.052;14.544;2023-04-07T01:00:48;98238.31;;;-0.08;100.00
56182;BME280;51963;46.052;14.544;2023-04-07T01:03:19;98237.50;;;-0.09;100.00
56182;BME280;51963;46.052;14.544;2023-04-07T01:05:54;98225.97;;;-0.16;100.00
56182;BME280;51963;46.052;14.544;2023-04-07T01:08:41;98233.06;;;-0.18;100.00
56182;BME280;51963;46.052;14.544;2023-04-07T01:11:39;98224.88;;;-0.13;100.00
56182;BME280;51963;46.052;14.544;2023-04-07T01:14:09;98234.56;;;-0.16;100.00
56182;BME280;51963;46.052;14.544;2023-04-07T01:16:48;98216.97;;;-0.12;100.00
56182;BME280;51963;46.052;14.544;2023-04-07T01:19:47;98230.53;;;-0.08;100.00
56182;BME280;51963;46.052;14.544;2023-04-07T01:22:20;98219.19;;;-0.07;100.00
56182;BME280;51963;46.052;14.544;2023-04-07T01:30:31;98226.91;;;-0.17;100.00
56182;BME280;51963;46.052;14.544;2023-04-07T01:33:00;98225.13;;;-0.17;100.00
56182;BME280;51963;46.052;14.544;2023-04-07T01:35:29;98227.50;;;-0.25;100.00
56182;BME280;51963;46.052;14.544;2023-04-07T01:37:57;98224.22;;;-0.27;100.00
56182;BME280;51963;46.052;14.544;2023-04-07T01:40:25;98209.50;;;-0.49;100.00
56182;BME280;51963;46.052;14.544;2023-04-07T01:42:53;98217.88;;;-0.46;100.00
56182;BME280;51963;46.052;14.544;2023-04-07T01:45:25;98213.06;;;-0.50;100.00
56182;BME280;51963;46.052;14.544;2023-04-07T01:47:51;98215.63;;;-0.39;100.00
56182;BME280;51963;46.052;14.544;2023-04-07T01:50:19;98219.06;;;-0.50;100.00
56182;BME280;51963;46.052;14.544;2023-04-07T01:52:46;98220.94;;;-0.52;100.00
56182;BME280;51963;46.052;14.544;2023-04-07T01:55:17;98217.41;;;-0.51;100.00
56182;BME280;51963;46.052;14.544;2023-04-07T01:57:53;98220.94;;;-0.52;100.00
56182;BME280;51963;46.052;14.544;2023-04-07T02:00:22;98208.81;;;-0.63;100.00
56182;BME280;51963;46.052;14.544;2023-04-07T02:02:57;98227.78;;;-0.51;100.00
56182;BME280;51963;46.052;14.544;2023-04-07T02:05:25;98218.59;;;-0.55;100.00
56182;BME280;51963;46.052;14.544;2023-04-07T02:08:04;98219.22;;;-0.63;100.00
56182;BME280;51963;46.052;14.544;2023-04-07T02:10:36;98218.38;;;-0.63;100.00
56182;BME280;51963;46.052;14.544;2023-04-07T02:13:05;98194.78;;;-0.71;100.00
56182;BME280;51963;46.052;14.544;2023-04-07T02:15:35;98205.75;;;-0.68;100.00
56182;BME280;51963;46.052;14.544;2023-04-07T02:18:02;98188.41;;;-0.79;100.00
56182;BME280;51963;46.052;14.544;2023-04-07T02:20:28;98214.25;;;-0.66;100.00
56182;BME280;51963;46.052;14.544;2023-04-07T02:22:55;98217.69;;;-0.77;100.00
56182;BME280;51963;46.052;14.544;2023-04-07T02:25:28;98215.69;;;-0.84;100.00
56182;BME280;51963;46.052;14.544;2023-04-07T02:27:56;98214.84;;;-0.85;100.00
56182;BME280;51963;46.052;14.544;2023-04-07T02:30:24;98220.03;;;-0.85;100.00
56182;BME280;51963;46.052;14.544;2023-04-07T02:32:51;98217.59;;;-0.86;100.00
56182;BME280;51963;46.052;14.544;2023-04-07T02:35:17;98203.66;;;-0.85;100.00
56182;BME280;51963;46.052;14.544;2023-04-07T02:37:43;98216.97;;;-0.90;100.00
56182;BME280;51963;46.052;14.544;2023-04-07T02:40:09;98215.81;;;-0.97;100.00
56182;BME280;51963;46.052;14.544;2023-04-07T02:42:35;98213.34;;;-0.99;100.00
56182;BME280;51963;46.052;14.544;2023-04-07T02:45:02;98217.59;;;-0.98;100.00
56182;BME280;51963;46.052;14.544;2023-04-07T02:47:29;98183.59;;;-1.17;100.00
56182;BME280;51963;46.052;14.544;2023-04-07T02:49:57;98221.22;;;-0.89;100.00
56182;BME280;51963;46.052;14.544;2023-04-07T02:52:25;98208.72;;;-0.95;100.00
56182;BME280;51963;46.052;14.544;2023-04-07T02:54:52;98210.38;;;-1.06;100.00
56182;BME280;51963;46.052;14.544;2023-04-07T02:57:21;98209.44;;;-1.05;100.00
56182;BME280;51963;46.052;14.544;2023-04-07T02:59:50;98192.69;;;-1.12;100.00
56182;BME280;51963;46.052;14.544;2023-04-07T03:02:16;98204.72;;;-1.11;100.00
56182;BME280;51963;46.052;14.544;2023-04-07T03:04:42;98199.28;;;-1.19;100.00
56182;BME280;51963;46.052;14.544;2023-04-07T03:07:10;98208.63;;;-1.16;100.00
56182;BME280;51963;46.052;14.544;2023-04-07T03:09:37;98203.53;;;-1.18;100.00
56182;BME280;51963;46.052;14.544;2023-04-07T03:12:03;98198.34;;;-1.18;100.00
56182;BME280;51963;46.052;14.544;2023-04-07T03:14:35;98206.97;;;-1.17;100.00
56182;BME280;51963;46.052;14.544;2023-04-07T03:17:02;98212.84;;;-1.15;100.00
56182;BME280;51963;46.052;14.544;2023-04-07T03:19:29;98188.91;;;-1.08;100.00
56182;BME280;51963;46.052;14.544;2023-04-07T03:21:54;98183.38;;;-1.14;100.00
56182;BME280;51963;46.052;14.544;2023-04-07T03:24:20;98171.09;;;-1.24;100.00
56182;BME280;51963;46.052;14.544;2023-04-07T03:26:46;98188.56;;;-1.26;100.00
56182;BME280;51963;46.052;14.544;2023-04-07T03:29:32;98204.94;;;-1.14;100.00
56182;BME280;51963;46.052;14.544;2023-04-07T03:31:59;98208.00;;;-1.20;100.00
56182;BME280;51963;46.052;14.544;2023-04-07T03:34:26;98209.41;;;-1.27;100.00
56182;BME280;51963;46.052;14.544;2023-04-07T03:36:51;98203.28;;;-1.38;100.00
56182;BME280;51963;46.052;14.544;2023-04-07T03:39:17;98200.19;;;-1.43;100.00
56182;BME280;51963;46.052;14.544;2023-04-07T03:41:43;98206.69;;;-1.49;100.00
56182;BME280;51963;46.052;14.544;2023-04-07T03:44:09;98200.66;;;-1.49;100.00
56182;BME280;51963;46.052;14.544;2023-04-07T03:46:36;98191.44;;;-1.65;100.00
56182;BME280;51963;46.052;14.544;2023-04-07T03:49:08;98188.13;;;-1.67;100.00
56182;BME280;51963;46.052;14.544;2023-04-07T03:51:34;98181.53;;;-1.71;100.00
56182;BME280;51963;46.052;14.544;2023-04-07T03:54:02;98211.59;;;-1.68;100.00
56182;BME280;51963;46.052;14.544;2023-04-07T03:56:32;98219.47;;;-1.70;100.00
56182;BME280;51963;46.052;14.544;2023-04-07T03:58:58;98199.63;;;-1.82;100.00
56182;BME280;51963;46.052;14.544;2023-04-07T04:01:31;98210.06;;;-1.59;100.00
56182;BME280;51963;46.052;14.544;2023-04-07T04:04:04;98219.41;;;-1.57;100.00
56182;BME280;51963;46.052;14.544;2023-04-07T04:06:30;98208.38;;;-1.72;100.00
56182;BME280;51963;46.052;14.544;2023-04-07T04:09:07;98205.06;;;-1.74;100.00
56182;BME280;51963;46.052;14.544;2023-04-07T04:11:35;98211.44;;;-1.78;100.00
56182;BME280;51963;46.052;14.544;2023-04-07T04:14:03;98192.84;;;-1.72;100.00
56182;BME280;51963;46.052;14.544;2023-04-07T04:16:30;98206.06;;;-1.64;100.00
56182;BME280;51963;46.052;14.544;2023-04-07T04:19:00;98183.72;;;-1.89;100.00
56182;BME280;51963;46.052;14.544;2023-04-07T04:21:29;98189.00;;;-1.90;100.00
56182;BME280;51963;46.052;14.544;2023-04-07T04:23:55;98205.44;;;-1.79;100.00
56182;BME280;51963;46.052;14.544;2023-04-07T04:26:24;98211.44;;;-1.78;100.00
56182;BME280;51963;46.052;14.544;2023-04-07T04:28:57;98195.25;;;-1.93;100.00
56182;BME280;51963;46.052;14.544;2023-04-07T04:31:26;98215.09;;;-1.81;100.00
56182;BME280;51963;46.052;14.544;2023-04-07T04:33:52;98195.66;;;-1.75;100.00
56182;BME280;51963;46.052;14.544;2023-04-07T04:36:18;98189.94;;;-1.92;100.00
56182;BME280;51963;46.052;14.544;2023-04-07T04:38:45;98207.31;;;-1.81;100.00
56182;BME280;51963;46.052;14.544;2023-04-07T04:41:15;98199.63;;;-1.82;100.00
56182;BME280;51963;46.052;14.544;2023-04-07T04:43:41;98199.34;;;-1.66;100.00
56182;BME280;51963;46.052;14.544;2023-04-07T04:46:13;98185.56;;;-1.55;100.00
56182;BME280;51963;46.052;14.544;2023-04-07T04:48:41;98179.16;;;-1.74;100.00
56182;BME280;51963;46.052;14.544;2023-04-07T04:51:10;98210.19;;;-1.61;100.00
56182;BME280;51963;46.052;14.544;2023-04-07T04:53:43;98209.13;;;-1.58;100.00
56182;BME280;51963;46.052;14.544;2023-04-07T04:56:08;98215.03;;;-1.56;100.00
56182;BME280;51963;46.052;14.544;2023-04-07T04:58:45;98210.94;;;-1.48;100.00
56182;BME280;51963;46.052;14.544;2023-04-07T05:01:17;98201.84;;;-1.42;100.00
56182;BME280;51963;46.052;14.544;2023-04-07T05:04:01;98211.28;;;-1.41;100.00
56182;BME280;51963;46.052;14.544;2023-04-07T05:06:28;98217.88;;;-1.37;100.00
56182;BME280;51963;46.052;14.544;2023-04-07T05:08:57;98201.63;;;-1.16;100.00
56182;BME280;51963;46.052;14.544;2023-04-07T05:11:28;98219.22;;;-1.08;100.00
56182;BME280;51963;46.052;14.544;2023-04-07T05:13:55;98217.44;;;-1.08;100.00
56182;BME280;51963;46.052;14.544;2023-04-07T05:16:22;98218.16;;;-1.06;100.00
56182;BME280;51963;46.052;14.544;2023-04-07T05:18:48;98221.22;;;-1.12;100.00
56182;BME280;51963;46.052;14.544;2023-04-07T05:21:14;98210.13;;;-1.14;100.00
56182;BME280;51963;46.052;14.544;2023-04-07T05:23:40;98203.53;;;-1.18;100.00
56182;BME280;51963;46.052;14.544;2023-04-07T05:26:10;98193.03;;;-1.16;100.00
56182;BME280;51963;46.052;14.544;2023-04-07T05:28:36;98217.34;;;-0.83;100.00
56182;BME280;51963;46.052;14.544;2023-04-07T05:31:05;98196.34;;;-0.92;100.00
56182;BME280;51963;46.052;14.544;2023-04-07T05:33:32;98184.91;;;-1.00;100.00
56182;BME280;51963;46.052;14.544;2023-04-07T05:35:58;98187.00;;;-0.94;100.00
56182;BME280;51963;46.052;14.544;2023-04-07T05:38:26;98196.22;;;-0.79;100.00
56182;BME280;51963;46.052;14.544;2023-04-07T05:40:57;98201.16;;;-0.64;100.00
56182;BME280;51963;46.052;14.544;2023-04-07T05:43:27;98213.63;;;-0.47;100.00
56182;BME280;51963;46.052;14.544;2023-04-07T05:45:53;98221.16;;;-0.32;100.00
56182;BME280;51963;46.052;14.544;2023-04-07T05:48:20;98217.59;;;-0.31;100.00
56182;BME280;51963;46.052;14.544;2023-04-07T05:50:46;98222.22;;;-0.23;100.00
56182;BME280;51963;46.052;14.544;2023-04-07T05:53:15;98218.53;;;-0.21;100.00
56182;BME280;51963;46.052;14.544;2023-04-07T05:55:42;98202.69;;;-0.18;100.00
56182;BME280;51963;46.052;14.544;2023-04-07T05:58:09;98211.13;;;0.07;100.00
56182;BME280;51963;46.052;14.544;2023-04-07T06:00:39;98189.28;;;-0.02;100.00
56182;BME280;51963;46.052;14.544;2023-04-07T06:03:13;98206.13;;;0.16;100.00
56182;BME280;51963;46.052;14.544;2023-04-07T06:05:52;98203.72;;;0.24;100.00
56182;BME280;51963;46.052;14.544;2023-04-07T06:08:19;98205.56;;;0.33;100.00
56182;BME280;51963;46.052;14.544;2023-04-07T06:14:51;98203.31;;;0.71;100.00
56182;BME280;51963;46.052;14.544;2023-04-07T06:17:17;98208.41;;;0.72;100.00
56182;BME280;51963;46.052;14.544;2023-04-07T06:19:45;98213.78;;;0.81;100.00
56182;BME280;51963;46.052;14.544;2023-04-07T06:22:11;98197.31;;;0.70;100.00
56182;BME280;51963;46.052;14.544;2023-04-07T06:24:38;98194.28;;;0.75;100.00
56182;BME280;51963;46.052;14.544;2023-04-07T06:27:03;98207.94;;;0.88;100.00
56182;BME280;51963;46.052;14.544;2023-04-07T06:29:31;98202.59;;;0.90;100.00
56182;BME280;51963;46.052;14.544;2023-04-07T06:31:57;98207.03;;;0.99;100.00
56182;BME280;51963;46.052;14.544;2023-04-07T06:34:24;98189.50;;;1.01;100.00
56182;BME280;51963;46.052;14.544;2023-04-07T06:36:50;98193.28;;;1.28;100.00
56182;BME280;51963;46.052;14.544;2023-04-07T06:39:16;98192.38;;;1.49;100.00
56182;BME280;51963;46.052;14.544;2023-04-07T06:41:42;98194.75;;;1.92;100.00
56182;BME280;51963;46.052;14.544;2023-04-07T06:44:09;98166.63;;;1.75;100.00
56182;BME280;51963;46.052;14.544;2023-04-07T06:46:40;98158.25;;;1.82;100.00
56182;BME280;51963;46.052;14.544;2023-04-07T06:49:06;98187.75;;;2.12;99.09
56182;BME280;51963;46.052;14.544;2023-04-07T06:51:32;98167.47;;;1.96;99.17
56182;BME280;51963;46.052;14.544;2023-04-07T06:53:57;98185.81;;;2.14;98.85
56182;BME280;51963;46.052;14.544;2023-04-07T06:56:23;98182.81;;;2.18;97.96
56182;BME280;51963;46.052;14.544;2023-04-07T06:58:49;98195.44;;;2.33;95.70
56182;BME280;51963;46.052;14.544;2023-04-07T07:01:18;98192.78;;;2.53;95.37
56182;BME280;51963;46.052;14.544;2023-04-07T07:03:46;98190.69;;;2.66;94.75
56182;BME280;51963;46.052;14.544;2023-04-07T07:06:11;98173.22;;;2.76;94.01
56182;BME280;51963;46.052;14.544;2023-04-07T07:08:37;98185.13;;;2.99;92.71
56182;BME280;51963;46.052;14.544;2023-04-07T07:11:04;98183.91;;;3.21;91.84
56182;BME280;51963;46.052;14.544;2023-04-07T07:13:30;98181.38;;;3.29;89.52
56182;BME280;51963;46.052;14.544;2023-04-07T07:15:55;98178.81;;;3.47;90.48
56182;BME280;51963;46.052;14.544;2023-04-07T07:18:21;98171.59;;;3.59;89.60
56182;BME280;51963;46.052;14.544;2023-04-07T07:20:47;98170.34;;;3.81;88.13
56182;BME280;51963;46.052;14.544;2023-04-07T07:23:12;98186.09;;;4.08;86.25
56182;BME280;51963;46.052;14.544;2023-04-07T07:25:38;98178.47;;;4.15;85.28
56182;BME280;51963;46.052;14.544;2023-04-07T07:28:04;98175.31;;;4.29;85.16
56182;BME280;51963;46.052;14.544;2023-04-07T07:30:30;98182.19;;;4.57;82.77
56182;BME280;51963;46.052;14.544;2023-04-07T07:32:56;98181.41;;;4.91;80.49
56182;BME280;51963;46.052;14.544;2023-04-07T07:35:21;98165.13;;;5.13;79.83
56182;BME280;51963;46.052;14.544;2023-04-07T07:37:47;98188.25;;;5.53;77.30
56182;BME280;51963;46.052;14.544;2023-04-07T07:40:13;98151.31;;;5.38;76.12
56182;BME280;51963;46.052;14.544;2023-04-07T07:42:40;98177.69;;;6.04;74.31
56182;BME280;51963;46.052;14.544;2023-04-07T07:45:08;98174.03;;;6.63;72.46
56182;BME280;51963;46.052;14.544;2023-04-07T07:47:34;98164.63;;;6.94;68.87
56182;BME280;51963;46.052;14.544;2023-04-07T07:50:03;98163.59;;;7.03;66.79
56182;BME280;51963;46.052;14.544;2023-04-07T07:52:28;98171.19;;;6.89;63.32
56182;BME280;51963;46.052;14.544;2023-04-07T07:54:54;98150.22;;;6.73;63.53
56182;BME280;51963;46.052;14.544;2023-04-07T07:57:20;98150.56;;;7.49;65.10
56182;BME280;51963;46.052;14.544;2023-04-07T07:59:46;98167.19;;;7.73;63.58
56182;BME280;51963;46.052;14.544;2023-04-07T08:02:11;98149.09;;;7.47;63.33
56182;BME280;51963;46.052;14.544;2023-04-07T08:04:38;98155.16;;;8.26;61.40
56182;BME280;51963;46.052;14.544;2023-04-07T08:07:04;98142.41;;;8.68;59.05
56182;BME280;51963;46.052;14.544;2023-04-07T08:09:29;98150.06;;;8.92;55.02
56182;BME280;51963;46.052;14.544;2023-04-07T08:11:57;98148.78;;;9.55;55.25
56182;BME280;51963;46.052;14.544;2023-04-07T08:14:23;98146.41;;;10.04;51.41
56182;BME280;51963;46.052;14.544;2023-04-07T08:16:49;98152.84;;;9.94;50.78
56182;BME280;51963;46.052;14.544;2023-04-07T08:19:15;98143.69;;;9.53;52.19
56182;BME280;51963;46.052;14.544;2023-04-07T08:21:41;98147.66;;;10.58;49.61
56182;BME280;51963;46.052;14.544;2023-04-07T08:24:08;98137.59;;;10.68;49.36
56182;BME280;51963;46.052;14.544;2023-04-07T08:26:34;98128.28;;;10.22;49.59
56182;BME280;51963;46.052;14.544;2023-04-07T08:28:59;98141.53;;;10.51;49.57
56182;BME280;51963;46.052;14.544;2023-04-07T08:31:25;98119.72;;;10.70;49.12
56182;BME280;51963;46.052;14.544;2023-04-07T08:33:51;98137.56;;;11.59;49.52
56182;BME280;51963;46.052;14.544;2023-04-07T08:36:23;98137.47;;;11.32;46.17
56182;BME280;51963;46.052;14.544;2023-04-07T08:38:49;98131.28;;;11.73;45.72
56182;BME280;51963;46.052;14.544;2023-04-07T08:41:36;98126.41;;;11.77;45.96
56182;BME280;51963;46.052;14.544;2023-04-07T08:44:02;98129.50;;;12.35;44.76
56182;BME280;51963;46.052;14.544;2023-04-07T08:46:28;98126.06;;;12.34;42.71
56182;BME280;51963;46.052;14.544;2023-04-07T08:48:56;98127.28;;;13.24;42.54
56182;BME280;51963;46.052;14.544;2023-04-07T08:51:30;98114.66;;;13.13;42.12
56182;BME280;51963;46.052;14.544;2023-04-07T08:54:12;98122.41;;;13.14;42.65
56182;BME280;51963;46.052;14.544;2023-04-07T08:56:40;98121.28;;;13.81;41.31
56182;BME280;51963;46.052;14.544;2023-04-07T08:59:07;98115.63;;;13.71;42.06
56182;BME280;51963;46.052;14.544;2023-04-07T09:01:35;98101.81;;;13.55;41.94
56182;BME280;51963;46.052;14.544;2023-04-07T09:04:05;98105.78;;;13.32;42.83
56182;BME280;51963;46.052;14.544;2023-04-07T09:06:34;98116.28;;;13.91;40.94
56182;BME280;51963;46.052;14.544;2023-04-07T09:09:01;98115.34;;;14.11;41.68
56182;BME280;51963;46.052;14.544;2023-04-07T09:11:28;98108.28;;;14.67;40.61
56182;BME280;51963;46.052;14.544;2023-04-07T09:13:55;98104.69;;;14.11;39.01
56182;BME280;51963;46.052;14.544;2023-04-07T09:16:22;98096.84;;;14.23;39.63
56182;BME280;51963;46.052;14.544;2023-04-07T09:18:51;98099.94;;;15.20;41.99
56182;BME280;51963;46.052;14.544;2023-04-07T09:21:17;98095.38;;;14.90;38.25
56182;BME280;51963;46.052;14.544;2023-04-07T09:23:43;98084.66;;;14.96;41.91
56182;BME280;51963;46.052;14.544;2023-04-07T09:28:57;98078.22;;;15.04;36.74
56182;BME280;51963;46.052;14.544;2023-04-07T09:36:50;98072.66;;;15.67;38.75
56182;BME280;51963;46.052;14.544;2023-04-07T09:39:15;98050.97;;;15.63;37.60
56182;BME280;51963;46.052;14.544;2023-04-07T09:41:41;98058.03;;;16.24;34.76
56182;BME280;51963;46.052;14.544;2023-04-07T09:44:07;98044.44;;;16.61;32.56
56182;BME280;51963;46.052;14.544;2023-04-07T09:46:32;98041.22;;;16.88;35.55
56182;BME280;51963;46.052;14.544;2023-04-07T09:49:02;98039.91;;;17.43;34.44
56182;BME280;51963;46.052;14.544;2023-04-07T09:51:51;98054.16;;;17.49;32.12
56182;BME280;51963;46.052;14.544;2023-04-07T09:54:37;98031.00;;;17.55;33.77
56182;BME280;51963;46.052;14.544;2023-04-07T09:57:36;98015.28;;;17.76;32.23
56182;BME280;51963;46.052;14.544;2023-04-07T10:00:24;98034.00;;;17.93;31.22
56182;BME280;51963;46.052;14.544;2023-04-07T10:02:51;98009.06;;;18.66;29.18
56182;BME280;51963;46.052;14.544;2023-04-07T10:05:17;98017.13;;;18.66;25.17
56182;BME280;51963;46.052;14.544;2023-04-07T10:07:46;98011.13;;;19.03;24.85
56182;BME280;51963;46.052;14.544;2023-04-07T10:10:12;98014.94;;;19.34;26.09
56182;BME280;51963;46.052;14.544;2023-04-07T10:12:38;98006.84;;;19.89;25.03
56182;BME280;51963;46.052;14.544;2023-04-07T10:15:06;97968.16;;;19.53;26.58
56182;BME280;51963;46.052;14.544;2023-04-07T10:17:34;97997.00;;;20.05;24.71
56182;BME280;51963;46.052;14.544;2023-04-07T10:20:01;97996.28;;;19.83;25.98
56182;BME280;51963;46.052;14.544;2023-04-07T10:22:29;98000.88;;;20.78;24.07
56182;BME280;51963;46.052;14.544;2023-04-07T10:27:29;97989.09;;;20.90;23.53
56182;BME280;51963;46.052;14.544;2023-04-07T10:29:56;97990.34;;;20.77;23.12
56182;BME280;51963;46.052;14.544;2023-04-07T10:32:22;97988.38;;;21.20;23.10
56182;BME280;51963;46.052;14.544;2023-04-07T10:37:21;97982.25;;;19.70;23.89
56182;BME280;51963;46.052;14.544;2023-04-07T10:40:25;97966.13;;;20.56;24.05
56182;BME280;51963;46.052;14.544;2023-04-07T10:45:07;97970.19;;;23.06;22.21
56182;BME280;51963;46.052;14.544;2023-04-07T10:48:09;97975.00;;;23.83;20.16
56182;BME280;51963;46.052;14.544;2023-04-07T10:50:35;97971.53;;;24.37;19.18
56182;BME280;51963;46.052;14.544;2023-04-07T10:53:06;97961.91;;;24.93;19.49
56182;BME280;51963;46.052;14.544;2023-04-07T10:55:42;97966.69;;;24.09;20.35
56182;BME280;51963;46.052;14.544;2023-04-07T10:58:31;97964.25;;;23.49;21.40
56182;BME280;51963;46.052;14.544;2023-04-07T11:03:35;97953.16;;;24.58;19.93
56182;BME280;51963;46.052;14.544;2023-04-07T11:08:32;97961.63;;;24.95;18.57
56182;BME280;51963;46.052;14.544;2023-04-07T11:10:58;97957.31;;;22.97;19.80
56182;BME280;51963;46.052;14.544;2023-04-07T11:13:25;97953.00;;;23.71;20.10
56182;BME280;51963;46.052;14.544;2023-04-07T11:15:52;97943.22;;;23.46;20.64
56182;BME280;51963;46.052;14.544;2023-04-07T11:18:21;97944.88;;;24.93;18.69
56182;BME280;51963;46.052;14.544;2023-04-07T11:20:52;97945.19;;;25.90;16.91
56182;BME280;51963;46.052;14.544;2023-04-07T11:23:20;97947.16;;;26.18;15.97
56182;BME280;51963;46.052;14.544;2023-04-07T11:25:48;97942.63;;;26.41;15.87
56182;BME280;51963;46.052;14.544;2023-04-07T11:28:15;97938.84;;;26.79;16.35
56182;BME280;51963;46.052;14.544;2023-04-07T11:30:51;97928.16;;;26.04;16.74
56182;BME280;51963;46.052;14.544;2023-04-07T11:33:21;97927.53;;;25.13;18.70
56182;BME280;51963;46.052;14.544;2023-04-07T11:35:55;97921.81;;;25.67;17.36
56182;BME280;51963;46.052;14.544;2023-04-07T11:38:37;97926.06;;;26.01;18.45
56182;BME280;51963;46.052;14.544;2023-04-07T11:41:11;97902.22;;;26.68;17.94
56182;BME280;51963;46.052;14.544;2023-04-07T11:43:37;97909.13;;;27.56;17.16
56182;BME280;51963;46.052;14.544;2023-04-07T11:46:19;97905.41;;;26.33;16.70
56182;BME280;51963;46.052;14.544;2023-04-07T11:48:44;97897.66;;;24.85;17.30
56182;BME280;51963;46.052;14.544;2023-04-07T11:51:16;97882.59;;;24.40;18.02
56182;BME280;51963;46.052;14.544;2023-04-07T11:53:42;97887.13;;;23.13;19.67
56182;BME280;51963;46.052;14.544;2023-04-07T11:56:11;97885.16;;;23.24;19.66
56182;BME280;51963;46.052;14.544;2023-04-07T11:58:54;97872.94;;;25.11;17.86
56182;BME280;51963;46.052;14.544;2023-04-07T12:01:21;97883.81;;;26.56;16.07
56182;BME280;51963;46.052;14.544;2023-04-07T12:04:02;97890.16;;;27.11;15.70
56182;BME280;51963;46.052;14.544;2023-04-07T12:06:31;97889.63;;;25.79;16.99
56182;BME280;51963;46.052;14.544;2023-04-07T12:09:07;97891.66;;;26.01;16.08
56182;BME280;51963;46.052;14.544;2023-04-07T12:11:33;97876.44;;;27.38;14.58
56182;BME280;51963;46.052;14.544;2023-04-07T12:14:00;97867.50;;;28.10;14.48
56182;BME280;51963;46.052;14.544;2023-04-07T12:16:26;97862.56;;;28.21;14.52
56182;BME280;51963;46.052;14.544;2023-04-07T12:18:52;97859.16;;;27.98;15.06
56182;BME280;51963;46.052;14.544;2023-04-07T12:21:18;97822.06;;;26.53;15.07
56182;BME280;51963;46.052;14.544;2023-04-07T12:23:45;97856.69;;;27.47;14.96
56182;BME280;51963;46.052;14.544;2023-04-07T12:26:12;97857.16;;;27.72;16.77
56182;BME280;51963;46.052;14.544;2023-04-07T12:28:38;97851.13;;;26.98;15.26
56182;BME280;51963;46.052;14.544;2023-04-07T12:31:04;97849.50;;;27.82;14.67
56182;BME280;51963;46.052;14.544;2023-04-07T12:33:30;97832.66;;;28.12;14.60
56182;BME280;51963;46.052;14.544;2023-04-07T12:35:57;97836.56;;;28.64;14.89
56182;BME280;51963;46.052;14.544;2023-04-07T12:38:22;97839.50;;;28.09;15.41
56182;BME280;51963;46.052;14.544;2023-04-07T12:40:48;97846.97;;;28.79;14.88
56182;BME280;51963;46.052;14.544;2023-04-07T12:43:15;97848.38;;;28.50;15.70
56182;BME280;51963;46.052;14.544;2023-04-07T12:45:41;97833.66;;;27.35;15.35
56182;BME280;51963;46.052;14.544;2023-04-07T12:48:07;97823.69;;;27.22;16.06
56182;BME280;51963;46.052;14.544;2023-04-07T12:50:34;97831.69;;;28.08;15.15
56182;BME280;51963;46.052;14.544;2023-04-07T12:53:00;97835.38;;;27.63;14.78
56182;BME280;51963;46.052;14.544;2023-04-07T12:55:30;97830.16;;;28.95;14.14
56182;BME280;51963;46.052;14.544;2023-04-07T12:57:58;97825.63;;;29.08;13.94
56182;BME280;51963;46.052;14.544;2023-04-07T13:00:24;97814.47;;;28.21;13.70
56182;BME280;51963;46.052;14.544;2023-04-07T13:02:50;97823.75;;;28.55;14.41
56182;BME280;51963;46.052;14.544;2023-04-07T13:05:16;97823.59;;;27.76;14.67
56182;BME280;51963;46.052;14.544;2023-04-07T13:07:43;97824.22;;;28.75;13.95
56182;BME280;51963;46.052;14.544;2023-04-07T13:10:09;97820.50;;;28.01;15.20
56182;BME280;51963;46.052;14.544;2023-04-07T13:12:35;97808.81;;;26.14;16.24
56182;BME280;51963;46.052;14.544;2023-04-07T13:15:01;97809.13;;;27.49;15.54
56182;BME280;51963;46.052;14.544;2023-04-07T13:17:27;97820.47;;;27.20;17.42
56182;BME280;51963;46.052;14.544;2023-04-07T13:19:54;97800.41;;;28.19;15.31
56182;BME280;51963;46.052;14.544;2023-04-07T13:22:19;97784.41;;;27.51;15.38
56182;BME280;51963;46.052;14.544;2023-04-07T13:24:45;97783.75;;;27.14;14.31
56182;BME280;51963;46.052;14.544;2023-04-07T13:27:11;97803.59;;;28.57;14.01